Time;durP1;ratioP1;P1;durP2;ratioP2;P2;SDS_P1;SDS_P2;PMS_P1;PMS_P2;Temp;Humidity;BMP_temperature;BMP_pressure;BME280_temperature;BME280_humidity;BME280_pressure;Samples;Min_cycle;Max_cycle;Signal;HPM_P1;HPM_P2
2021/10/22 02:30:27;;;;;;;16.25;4.18;;;6.60;99.90;;;;;;5031165;28;20461;-81
2021/10/22 02:32:53;;;;;;;15.50;4.20;;;6.60;99.90;;;;;;5030465;28;20395;-83
2021/10/22 02:35:19;;;;;;;16.57;3.93;;;6.60;99.90;;;;;;5031664;28;20946;-83
2021/10/22 02:37:45;;;;;;;18.67;4.05;;;6.70;99.90;;;;;;5029805;28;20397;-81
2021/10/22 02:40:12;;;;;;;19.10;4.00;;;6.70;99.90;;;;;;5030927;28;20385;-82
2021/10/22 02:42:38;;;;;;;12.45;3.85;;;6.70;99.90;;;;;;5029746;28;20875;-83
2021/10/22 02:45:05;;;;;;;12.43;3.60;;;6.70;99.90;;;;;;5029383;28;20420;-82
2021/10/22 02:47:31;;;;;;;12.45;3.78;;;6.70;99.90;;;;;;5029252;28;20472;-85
2021/10/22 02:49:56;;;;;;;13.88;4.35;;;6.70;99.90;;;;;;5029349;28;20496;-83
2021/10/22 02:52:22;;;;;;;12.10;3.97;;;6.70;99.90;;;;;;5030884;28;20382;-83
2021/10/22 02:54:48;;;;;;;13.03;3.67;;;6.80;99.90;;;;;;5030411;28;20380;-83
2021/10/22 02:57:13;;;;;;;10.90;3.27;;;6.80;99.90;;;;;;5028252;28;20899;-83
2021/10/22 02:59:39;;;;;;;13.65;3.60;;;6.80;99.90;;;;;;5029728;28;20740;-83
2021/10/22 03:02:05;;;;;;;14.00;4.07;;;6.80;99.90;;;;;;5028296;28;20420;-82
2021/10/22 03:04:30;;;;;;;13.03;3.83;;;6.90;99.90;;;;;;5029628;28;20906;-84
2021/10/22 03:06:56;;;;;;;12.87;3.47;;;6.90;99.90;;;;;;5029144;28;20374;-83
2021/10/22 03:09:21;;;;;;;11.68;3.40;;;6.80;99.90;;;;;;5029401;28;20372;-82
2021/10/22 03:11:47;;;;;;;16.17;3.73;;;6.80;99.90;;;;;;5028144;28;20496;-83
2021/10/22 03:14:13;;;;;;;14.53;3.70;;;6.80;99.90;;;;;;5029693;28;20381;-82
2021/10/22 03:16:38;;;;;;;10.20;3.75;;;6.80;99.90;;;;;;5027978;28;20876;-83
2021/10/22 03:19:04;;;;;;;15.02;3.60;;;6.90;99.90;;;;;;5028708;28;20736;-83
2021/10/22 03:21:29;;;;;;;15.60;4.07;;;6.80;99.90;;;;;;5029588;28;20539;-83
2021/10/22 03:23:56;;;;;;;11.77;3.90;;;6.80;99.90;;;;;;5029210;28;20767;-82
2021/10/22 03:26:23;;;;;;;12.70;3.77;;;6.80;99.90;;;;;;5029480;28;20887;-83
2021/10/22 03:28:49;;;;;;;14.75;4.13;;;6.80;99.90;;;;;;5029251;28;20377;-85
2021/10/22 03:31:14;;;;;;;14.63;4.07;;;6.70;99.90;;;;;;5028019;28;20385;-84
2021/10/22 03:33:40;;;;;;;11.57;3.77;;;6.70;99.90;;;;;;5029261;28;20392;-82
2021/10/22 03:36:06;;;;;;;13.83;3.90;;;6.80;99.90;;;;;;5028999;28;20439;-82
2021/10/22 03:38:31;;;;;;;13.85;3.78;;;6.70;99.90;;;;;;5029299;28;20373;-82
2021/10/22 03:40:57;;;;;;;17.10;3.65;;;6.70;99.90;;;;;;5029523;28;20374;-81
2021/10/22 03:43:22;;;;;;;17.90;4.00;;;6.70;99.90;;;;;;5029256;28;20662;-83
2021/10/22 03:45:48;;;;;;;13.60;4.20;;;6.70;99.90;;;;;;5029649;28;20408;-83
2021/10/22 03:48:14;;;;;;;13.13;3.70;;;6.70;99.90;;;;;;5029437;28;20875;-82
2021/10/22 03:50:39;;;;;;;14.82;4.07;;;6.70;99.90;;;;;;5029685;28;20484;-84
2021/10/22 03:53:07;;;;;;;13.53;3.40;;;6.60;99.90;;;;;;5027969;28;20413;-83
2021/10/22 03:55:33;;;;;;;13.70;3.60;;;6.60;99.90;;;;;;5027859;28;20759;-83
2021/10/22 03:57:58;;;;;;;12.82;3.50;;;6.60;99.90;;;;;;5029469;28;20361;-86
2021/10/22 04:00:24;;;;;;;12.83;3.40;;;6.60;99.90;;;;;;5029488;28;20396;-82
2021/10/22 04:02:49;;;;;;;11.73;3.30;;;6.60;99.90;;;;;;5027961;28;20373;-82
2021/10/22 04:05:15;;;;;;;13.48;3.92;;;6.50;99.90;;;;;;5029337;28;20403;-83
2021/10/22 04:07:41;;;;;;;16.83;3.72;;;6.50;99.90;;;;;;5028534;28;20385;-83
2021/10/22 04:10:08;;;;;;;11.73;3.73;;;6.50;99.90;;;;;;5029460;28;20393;-84
2021/10/22 04:12:34;;;;;;;14.82;3.85;;;6.60;99.90;;;;;;5027736;28;20381;-81
2021/10/22 04:15:01;;;;;;;13.80;3.88;;;6.60;99.90;;;;;;5027785;28;20382;-83
2021/10/22 04:17:26;;;;;;;15.38;4.07;;;6.60;99.90;;;;;;5028407;28;20867;-82
2021/10/22 04:19:52;;;;;;;12.20;3.40;;;6.60;99.90;;;;;;5028725;28;20388;-83
2021/10/22 04:22:18;;;;;;;12.50;3.20;;;6.70;99.90;;;;;;5028878;28;20374;-83
2021/10/22 04:24:43;;;;;;;12.60;3.17;;;6.60;99.90;;;;;;5030184;28;20432;-82
2021/10/22 04:27:09;;;;;;;9.00;3.23;;;6.70;99.90;;;;;;5032583;28;20393;-83
2021/10/22 04:29:35;;;;;;;13.93;3.58;;;6.80;99.90;;;;;;5032605;28;20450;-85
2021/10/22 04:32:00;;;;;;;10.23;3.00;;;6.80;99.90;;;;;;5032509;28;20736;-83
2021/10/22 04:34:28;;;;;;;15.63;3.73;;;6.80;99.90;;;;;;5032357;28;20381;-84
2021/10/22 04:37:01;;;;;;;12.02;3.67;;;6.80;99.90;;;;;;5031229;28;21074;-85
2021/10/22 04:42:10;;;;;;;10.77;3.00;;;6.80;99.90;;;;;;5032754;28;20389;-84
2021/10/22 04:44:36;;;;;;;11.13;3.10;;;6.80;99.90;;;;;;5030861;28;20783;-84
2021/10/22 04:47:03;;;;;;;13.13;3.60;;;6.70;99.90;;;;;;5031851;28;20465;-81
2021/10/22 04:49:29;;;;;;;12.38;3.60;;;6.70;99.90;;;;;;5031979;28;20405;-84
2021/10/22 04:51:55;;;;;;;10.63;3.50;;;6.70;99.90;;;;;;5032374;28;20405;-82
2021/10/22 04:54:20;;;;;;;12.10;3.13;;;6.60;99.90;;;;;;5032337;28;20796;-84
2021/10/22 04:56:46;;;;;;;11.47;3.80;;;6.60;99.90;;;;;;5030569;28;20385;-83
2021/10/22 04:59:11;;;;;;;10.20;3.50;;;6.60;99.90;;;;;;5032166;28;20464;-82
2021/10/22 05:01:37;;;;;;;12.00;4.00;;;6.60;99.90;;;;;;5032499;28;20890;-83
2021/10/22 05:04:02;;;;;;;14.30;3.93;;;6.60;99.90;;;;;;5032080;28;20851;-84
2021/10/22 05:06:28;;;;;;;13.38;3.53;;;6.60;99.90;;;;;;5032176;28;20417;-83
2021/10/22 05:08:54;;;;;;;12.23;3.70;;;6.60;99.90;;;;;;5031676;28;20381;-83
2021/10/22 05:11:19;;;;;;;11.17;3.60;;;6.60;99.90;;;;;;5032647;28;20376;-83
2021/10/22 05:13:45;;;;;;;10.02;3.35;;;6.50;99.90;;;;;;5030777;28;20373;-84
2021/10/22 05:16:10;;;;;;;10.73;3.50;;;6.50;99.90;;;;;;5031013;28;20382;-81
2021/10/22 05:18:36;;;;;;;12.40;4.00;;;6.40;99.90;;;;;;5032317;28;20377;-84
2021/10/22 05:21:01;;;;;;;18.80;4.40;;;6.40;99.90;;;;;;5031076;28;20472;-84
2021/10/22 05:23:27;;;;;;;11.60;4.30;;;6.40;99.90;;;;;;5032197;28;20374;-83
2021/10/22 05:25:53;;;;;;;11.03;4.07;;;6.40;99.90;;;;;;5030989;28;20393;-83
2021/10/22 05:28:18;;;;;;;14.57;4.00;;;6.40;99.90;;;;;;5031391;28;20875;-84
2021/10/22 05:30:44;;;;;;;19.85;4.68;;;6.30;99.90;;;;;;5031323;28;20467;-84
2021/10/22 05:33:12;;;;;;;15.53;4.13;;;6.30;99.90;;;;;;5031956;28;20410;-83
2021/10/22 05:35:38;;;;;;;14.07;3.70;;;6.30;99.90;;;;;;5030828;28;20479;-84
2021/10/22 05:38:05;;;;;;;12.98;4.05;;;6.30;99.90;;;;;;5029575;28;20469;-82
2021/10/22 05:40:30;;;;;;;10.82;3.70;;;6.30;99.90;;;;;;5030145;28;20500;-83
2021/10/22 05:42:56;;;;;;;14.90;4.03;;;6.40;99.90;;;;;;5030937;28;20500;-83
2021/10/22 05:45:21;;;;;;;10.97;3.70;;;6.30;99.90;;;;;;5031450;28;20410;-82
2021/10/22 05:47:47;;;;;;;13.98;4.45;;;6.30;99.90;;;;;;5029430;28;20421;-84
2021/10/22 05:50:13;;;;;;;15.53;4.00;;;6.30;99.90;;;;;;5031377;28;20470;-84
2021/10/22 05:52:38;;;;;;;13.47;3.70;;;6.30;99.90;;;;;;5030049;28;20385;-82
2021/10/22 05:55:05;;;;;;;15.70;4.28;;;6.40;99.90;;;;;;5031260;28;20385;-83
2021/10/22 05:57:31;;;;;;;14.10;3.70;;;6.40;99.90;;;;;;5030667;28;20378;-84
2021/10/22 05:59:56;;;;;;;10.37;3.77;;;6.50;99.90;;;;;;5029793;28;20384;-83
2021/10/22 06:02:22;;;;;;;13.40;3.97;;;6.50;99.90;;;;;;5030910;28;20740;-83
2021/10/22 06:04:48;;;;;;;16.10;4.60;;;6.60;99.90;;;;;;5030754;28;20402;-85
2021/10/22 06:07:13;;;;;;;18.10;4.10;;;6.70;99.90;;;;;;5030338;28;20386;-82
2021/10/22 06:09:39;;;;;;;15.25;4.32;;;6.70;99.90;;;;;;5031111;28;20432;-83
2021/10/22 06:12:05;;;;;;;15.60;4.17;;;6.70;99.90;;;;;;5031009;28;20378;-84
2021/10/22 06:14:31;;;;;;;14.27;4.55;;;6.80;99.90;;;;;;5030999;28;20494;-83
2021/10/22 06:16:57;;;;;;;14.90;4.37;;;6.80;99.90;;;;;;5031734;28;20880;-82
2021/10/22 06:19:27;;;;;;;11.75;4.07;;;6.90;99.90;;;;;;5029690;28;20383;-84
2021/10/22 06:24:38;;;;;;;10.35;3.60;;;6.80;99.90;;;;;;5030905;28;20487;-84
2021/10/22 06:27:04;;;;;;;12.50;4.50;;;6.90;99.90;;;;;;5030550;28;20413;-83
2021/10/22 06:29:31;;;;;;;16.50;4.97;;;6.90;99.90;;;;;;5030889;28;20400;-81
2021/10/22 06:31:57;;;;;;;16.15;5.07;;;7.00;99.90;;;;;;5029607;28;20735;-82
2021/10/22 06:34:25;;;;;;;13.70;4.30;;;7.10;99.90;;;;;;5030907;28;20412;-84
2021/10/22 06:36:51;;;;;;;10.75;4.22;;;7.20;99.90;;;;;;5030845;28;20377;-84
2021/10/22 06:39:16;;;;;;;16.77;4.57;;;7.20;99.90;;;;;;5031220;28;20461;-83
2021/10/22 06:41:42;;;;;;;15.30;4.85;;;7.20;99.90;;;;;;5031636;28;20405;-83
2021/10/22 06:44:07;;;;;;;10.77;3.97;;;7.20;99.90;;;;;;5031053;28;20401;-84
2021/10/22 06:46:33;;;;;;;12.97;4.17;;;7.30;99.90;;;;;;5030810;28;20467;-84
2021/10/22 06:48:59;;;;;;;12.20;3.67;;;7.40;99.90;;;;;;5030294;28;20435;-82
2021/10/22 06:51:25;;;;;;;11.20;3.77;;;7.40;99.90;;;;;;5030306;28;20377;-83
2021/10/22 06:53:50;;;;;;;15.35;4.13;;;7.40;99.90;;;;;;5030230;28;20412;-82
2021/10/22 06:56:17;;;;;;;11.23;3.70;;;7.50;99.90;;;;;;5030315;28;20890;-83
2021/10/22 06:58:43;;;;;;;9.60;3.70;;;7.50;99.90;;;;;;5028284;28;20883;-84
2021/10/22 07:01:08;;;;;;;16.03;3.70;;;7.60;99.90;;;;;;5030636;28;20938;-84
2021/10/22 07:03:39;;;;;;;12.60;4.10;;;7.60;99.90;;;;;;5030440;28;20374;-82
2021/10/22 07:09:03;;;;;;;14.52;4.18;;;7.70;99.90;;;;;;5018570;28;20382;-85
2021/10/22 07:11:28;;;;;;;12.25;3.65;;;7.70;99.90;;;;;;5050088;28;20720;-84
2021/10/22 07:13:55;;;;;;;12.27;4.07;;;7.70;99.90;;;;;;5042116;28;20453;-83
2021/10/22 07:16:24;;;;;;;15.50;3.87;;;7.70;99.90;;;;;;5048923;28;20387;-84
2021/10/22 07:18:50;;;;;;;11.23;3.50;;;7.90;99.90;;;;;;5049083;28;20383;-84
2021/10/22 07:21:17;;;;;;;13.07;4.00;;;7.90;99.90;;;;;;5047838;28;20386;-85
2021/10/22 07:23:46;;;;;;;11.73;3.92;;;7.90;99.90;;;;;;5047507;28;20391;-85
2021/10/22 07:26:13;;;;;;;13.38;3.70;;;7.90;99.90;;;;;;5049586;28;20390;-82
2021/10/22 07:28:39;;;;;;;12.88;3.85;;;7.90;99.90;;;;;;5049102;28;20380;-84
2021/10/22 07:31:04;;;;;;;12.50;3.70;;;7.90;99.90;;;;;;5039129;28;20913;-85
2021/10/22 07:33:30;;;;;;;13.25;3.72;;;7.90;99.90;;;;;;5027935;28;20396;-83
2021/10/22 07:35:56;;;;;;;14.13;3.70;;;8.00;99.90;;;;;;5028977;28;20417;-85
2021/10/22 07:38:23;;;;;;;10.03;3.33;;;8.00;99.90;;;;;;5028966;28;20461;-84
2021/10/22 07:40:49;;;;;;;13.40;3.70;;;8.10;99.90;;;;;;5028051;28;20377;-82
2021/10/22 07:43:17;;;;;;;14.17;3.80;;;8.20;99.90;;;;;;5034213;28;20412;-86
2021/10/22 07:45:43;;;;;;;12.73;3.47;;;8.20;99.90;;;;;;5205316;23;20446;-83
2021/10/22 07:48:09;;;;;;;16.77;3.42;;;8.20;99.90;;;;;;5003681;28;20843;-81
2021/10/22 07:50:35;;;;;;;12.97;3.83;;;8.30;99.90;;;;;;5006453;28;21110;-84
2021/10/22 07:53:00;;;;;;;10.82;3.25;;;8.40;99.90;;;;;;5005448;28;21142;-84
2021/10/22 07:55:26;;;;;;;15.45;3.88;;;8.40;99.90;;;;;;5005932;28;20499;-81
2021/10/22 07:57:52;;;;;;;10.65;3.45;;;8.40;99.90;;;;;;5008423;28;20415;-82
2021/10/22 08:00:19;;;;;;;17.98;4.80;;;8.40;99.90;;;;;;5007465;28;20409;-82
2021/10/22 08:02:44;;;;;;;11.25;3.25;;;8.40;99.90;;;;;;5007115;28;20449;-81
2021/10/22 08:05:10;;;;;;;12.37;3.37;;;8.50;99.90;;;;;;5005902;28;20884;-81
2021/10/22 08:07:38;;;;;;;12.68;3.80;;;8.50;99.90;;;;;;5007992;28;20798;-83
2021/10/22 08:10:05;;;;;;;10.05;3.58;;;8.50;99.90;;;;;;5008826;28;20741;-83
2021/10/22 08:12:31;;;;;;;13.93;3.40;;;8.60;99.90;;;;;;4992392;28;20397;-81
2021/10/22 08:14:57;;;;;;;14.55;3.83;;;8.70;99.90;;;;;;5000644;28;20391;-82
2021/10/22 08:17:23;;;;;;;14.48;4.47;;;8.70;99.90;;;;;;5005297;28;20398;-82
2021/10/22 08:20:08;;;;;;;15.57;4.55;;;8.70;99.90;;;;;;5006377;28;20466;-83
2021/10/22 08:22:34;;;;;;;14.65;3.45;;;8.70;99.90;;;;;;5009536;28;20402;-82
2021/10/22 08:25:02;;;;;;;13.67;4.20;;;8.70;99.90;;;;;;5008240;28;20900;-83
2021/10/22 08:27:33;;;;;;;11.57;3.42;;;8.70;99.90;;;;;;5007162;28;20773;-81
2021/10/22 08:30:00;;;;;;;11.02;3.63;;;8.80;99.90;;;;;;5008615;28;20895;-82
2021/10/22 08:32:27;;;;;;;11.40;3.55;;;8.90;99.90;;;;;;5007301;28;20721;-82
2021/10/22 08:34:53;;;;;;;10.45;3.60;;;9.00;99.90;;;;;;5007975;28;20371;-83
2021/10/22 08:37:18;;;;;;;12.20;3.77;;;9.10;99.90;;;;;;5007776;28;20736;-82
2021/10/22 08:39:46;;;;;;;9.63;3.27;;;9.10;99.90;;;;;;5005906;28;20410;-83
2021/10/22 08:42:14;;;;;;;13.47;3.73;;;9.20;99.90;;;;;;5006310;28;20379;-81
2021/10/22 08:44:43;;;;;;;12.57;3.70;;;9.20;99.90;;;;;;5008048;28;20407;-81
2021/10/22 08:47:09;;;;;;;12.73;3.47;;;9.40;99.90;;;;;;5008051;28;20394;-80
2021/10/22 08:49:37;;;;;;;18.05;4.15;;;9.40;99.90;;;;;;5007322;28;20383;-82
2021/10/22 08:52:04;;;;;;;10.90;2.95;;;9.50;99.90;;;;;;5007860;28;20383;-83
2021/10/22 08:54:31;;;;;;;13.48;3.58;;;9.50;99.90;;;;;;5007727;28;20395;-82
2021/10/22 08:56:58;;;;;;;10.25;3.60;;;9.50;99.90;;;;;;5008206;28;20386;-82
2021/10/22 08:59:24;;;;;;;9.27;3.22;;;9.70;99.90;;;;;;5007718;28;20390;-81
2021/10/22 09:02:29;;;;;;;13.13;3.70;;;9.80;99.90;;;;;;5008314;28;20375;-81
2021/10/22 09:04:59;;;;;;;11.38;3.45;;;9.90;99.90;;;;;;5008192;28;20415;-82
2021/10/22 09:07:47;;;;;;;10.40;3.23;;;10.00;99.90;;;;;;4994397;28;20556;-81
2021/10/22 09:10:22;;;;;;;15.93;4.13;;;10.00;99.90;;;;;;5006117;28;20390;-81
2021/10/22 09:13:03;;;;;;;13.55;3.75;;;10.00;99.90;;;;;;5007690;28;20417;-82
2021/10/22 09:15:33;;;;;;;11.13;3.33;;;10.00;99.90;;;;;;5009153;28;20386;-82
2021/10/22 09:18:07;;;;;;;12.38;3.30;;;10.00;99.90;;;;;;5009023;28;20442;-81
2021/10/22 09:20:46;;;;;;;9.52;3.05;;;10.10;99.90;;;;;;5008788;28;20387;-82
2021/10/22 09:23:28;;;;;;;10.40;3.50;;;10.10;99.90;;;;;;5009299;28;20383;-81
2021/10/22 09:26:14;;;;;;;12.65;3.50;;;10.10;99.90;;;;;;5009753;28;20410;-82
2021/10/22 09:28:40;;;;;;;8.82;3.20;;;10.00;99.90;;;;;;5008875;28;20371;-81
2021/10/22 09:31:10;;;;;;;11.55;3.38;;;10.10;99.90;;;;;;5007883;28;20880;-81
2021/10/22 09:34:06;;;;;;;12.55;3.58;;;10.10;99.90;;;;;;5005836;28;20478;-81
2021/10/22 09:36:40;;;;;;;11.85;3.97;;;10.10;99.90;;;;;;5008995;28;20427;-83
2021/10/22 09:39:08;;;;;;;14.15;3.63;;;10.00;99.90;;;;;;5002700;28;20959;-82
2021/10/22 09:41:38;;;;;;;12.50;3.80;;;10.10;99.90;;;;;;5008629;28;20379;-81
2021/10/22 09:44:26;;;;;;;13.18;4.05;;;10.00;99.90;;;;;;5009266;28;20407;-82
2021/10/22 09:47:14;;;;;;;12.07;3.50;;;9.90;99.90;;;;;;5005729;28;20414;-81
2021/10/22 09:49:52;;;;;;;10.25;3.40;;;9.80;99.90;;;;;;5007145;28;20383;-81
2021/10/22 09:52:23;;;;;;;8.57;3.15;;;9.80;99.90;;;;;;5007485;28;20453;-81
2021/10/22 09:55:15;;;;;;;13.33;3.87;;;9.80;99.90;;;;;;5008622;28;20725;-81
2021/10/22 09:57:41;;;;;;;11.00;3.30;;;9.80;99.90;;;;;;5007063;28;20399;-80
2021/10/22 10:00:08;;;;;;;16.27;3.88;;;9.90;99.90;;;;;;5007415;28;20990;-82
2021/10/22 10:02:38;;;;;;;10.20;3.08;;;9.90;99.90;;;;;;5006400;28;20478;-84
2021/10/22 10:05:09;;;;;;;12.23;3.60;;;9.80;99.90;;;;;;5007294;28;20411;-82
2021/10/22 10:07:43;;;;;;;14.98;3.80;;;9.90;99.90;;;;;;5001945;28;20951;-83
2021/10/22 10:10:10;;;;;;;9.63;3.25;;;9.80;99.90;;;;;;4120668;28;10002520;-81
2021/10/22 10:12:40;;;;;;;10.98;3.22;;;9.80;99.90;;;;;;4115662;28;10002332;-82
2021/10/22 10:15:09;;;;;;;12.02;3.80;;;9.90;99.90;;;;;;4983511;28;20393;-82
2021/10/22 10:17:41;;;;;;;10.18;3.50;;;9.80;99.90;;;;;;4985149;28;20879;-80
2021/10/22 10:20:09;;;;;;;11.30;3.42;;;9.90;99.90;;;;;;4985926;28;21116;-82
2021/10/22 10:22:36;;;;;;;10.40;3.33;;;9.80;99.90;;;;;;4984609;28;20404;-83
2021/10/22 10:25:06;;;;;;;11.40;3.16;;;9.90;99.90;;;;;;3296261;28;10001427;-81
2021/10/22 10:27:47;;;;;;;12.83;3.63;;;9.90;99.90;;;;;;4984837;28;20460;-81
2021/10/22 10:30:29;;;;;;;12.60;3.58;;;9.90;99.90;;;;;;4985783;28;20431;-84
2021/10/22 10:32:56;;;;;;;8.60;3.35;;;10.00;99.90;;;;;;4987833;28;20389;-82
2021/10/22 10:35:24;;;;;;;8.52;3.05;;;10.00;99.90;;;;;;4987296;28;21546;-84
2021/10/22 10:37:54;;;;;;;7.95;2.72;;;10.00;99.90;;;;;;4986824;28;20401;-83
2021/10/22 10:40:30;;;;;;;12.35;3.50;;;10.00;99.90;;;;;;4986223;28;20736;-84
2021/10/22 10:43:02;;;;;;;10.68;3.92;;;10.00;99.90;;;;;;4988524;28;20373;-82
2021/10/22 10:45:28;;;;;;;9.43;2.92;;;10.00;99.90;;;;;;4987785;28;20909;-82
2021/10/22 10:47:58;;;;;;;11.10;3.20;;;10.00;99.90;;;;;;4119599;28;10001812;-81
2021/10/22 10:50:49;;;;;;;11.23;3.05;;;10.00;99.90;;;;;;4989084;28;20389;-83
2021/10/22 10:53:34;;;;;;;9.45;3.17;;;10.00;99.90;;;;;;4990428;28;21011;-80
2021/10/22 10:56:03;;;;;;;8.73;3.20;;;9.90;99.90;;;;;;4991085;28;20867;-85
2021/10/22 10:58:39;;;;;;;9.75;3.03;;;10.00;99.90;;;;;;4990477;28;20503;-83
2021/10/22 11:01:24;;;;;;;9.95;2.80;;;10.00;99.90;;;;;;4988393;28;20897;-81
2021/10/22 11:03:49;;;;;;;10.60;2.90;;;10.10;99.90;;;;;;4984808;28;20505;-82
2021/10/22 11:06:34;;;;;;;11.17;3.30;;;10.10;99.90;;;;;;4983880;28;20381;-82
2021/10/22 11:09:00;;;;;;;16.90;3.33;;;10.10;99.90;;;;;;4980813;28;20482;-81
2021/10/22 11:11:32;;;;;;;12.63;3.40;;;10.20;99.90;;;;;;4977199;28;20444;-83
2021/10/22 11:14:04;;;;;;;9.73;3.20;;;10.20;99.90;;;;;;4981736;28;20382;-82
2021/10/22 11:16:44;;;;;;;9.07;3.38;;;10.20;99.90;;;;;;4978338;28;20459;-83
2021/10/22 11:19:20;;;;;;;11.40;3.13;;;10.20;99.90;;;;;;4977190;28;20406;-81
2021/10/22 11:21:58;;;;;;;8.82;3.00;;;10.30;99.90;;;;;;4977901;28;20380;-82
2021/10/22 11:24:32;;;;;;;12.30;3.63;;;10.20;99.90;;;;;;4978978;28;20497;-81
2021/10/22 11:27:12;;;;;;;9.13;3.05;;;10.20;99.90;;;;;;4980680;28;20620;-83
2021/10/22 11:29:43;;;;;;;9.02;3.00;;;10.30;99.90;;;;;;4979134;28;20513;-83
2021/10/22 11:32:14;;;;;;;10.87;3.53;;;10.30;99.90;;;;;;4970634;28;20398;-83
2021/10/22 11:34:47;;;;;;;10.13;2.90;;;10.40;99.90;;;;;;4970447;28;20386;-84
2021/10/22 11:37:18;;;;;;;8.60;3.20;;;10.40;99.90;;;;;;4969548;28;20390;-84
2021/10/22 11:39:58;;;;;;;8.80;3.28;;;10.40;99.90;;;;;;4969483;28;20390;-80
2021/10/22 11:42:31;;;;;;;10.95;3.15;;;10.50;99.90;;;;;;4971267;28;20379;-83
2021/10/22 11:45:01;;;;;;;12.20;3.37;;;10.50;99.90;;;;;;4976058;28;20846;-82
2021/10/22 11:47:52;;;;;;;8.33;3.03;;;10.60;99.90;;;;;;4984894;28;21001;-83
2021/10/22 11:50:24;;;;;;;11.27;3.08;;;10.60;99.90;;;;;;4980532;28;20393;-83
2021/10/22 11:53:12;;;;;;;7.57;2.83;;;10.60;99.90;;;;;;4987711;28;20475;-84
2021/10/22 11:55:42;;;;;;;9.40;2.90;;;10.60;99.90;;;;;;4986757;28;20385;-83
2021/10/22 11:58:11;;;;;;;10.68;3.50;;;10.60;99.90;;;;;;4986726;28;20396;-82
2021/10/22 12:00:46;;;;;;;11.05;3.40;;;10.60;99.90;;;;;;4986244;28;20454;-83
2021/10/22 12:03:12;;;;;;;8.70;3.10;;;10.60;99.90;;;;;;4986836;28;20770;-81
2021/10/22 12:05:40;;;;;;;12.63;3.90;;;10.70;99.90;;;;;;4986643;28;20412;-85
2021/10/22 12:08:06;;;;;;;9.75;3.70;;;10.70;99.90;;;;;;4986619;28;20450;-84
2021/10/22 12:10:37;;;;;;;10.65;3.08;;;10.60;99.90;;;;;;4987805;28;21134;-84
2021/10/22 12:13:02;;;;;;;11.20;3.88;;;10.60;99.90;;;;;;4988422;28;20393;-82
2021/10/22 12:15:30;;;;;;;8.33;3.17;;;10.60;99.90;;;;;;4986270;28;20385;-84
2021/10/22 12:18:01;;;;;;;14.32;3.90;;;10.60;99.90;;;;;;4987100;28;20780;-83
2021/10/22 12:20:28;;;;;;;8.18;3.03;;;10.60;99.90;;;;;;4984968;28;20755;-84
2021/10/22 12:22:56;;;;;;;8.68;2.78;;;10.60;99.90;;;;;;4985407;28;20428;-84
2021/10/22 12:25:24;;;;;;;12.43;3.35;;;10.50;99.90;;;;;;4987145;28;20574;-85
2021/10/22 12:27:51;;;;;;;8.82;3.20;;;10.60;99.90;;;;;;4987239;28;20751;-83
2021/10/22 12:30:26;;;;;;;8.38;3.25;;;10.80;99.90;;;;;;4987180;28;20388;-82
2021/10/22 12:33:04;;;;;;;7.82;3.25;;;10.90;99.90;;;;;;4986868;28;20487;-81
2021/10/22 12:35:34;;;;;;;7.97;3.47;;;11.00;99.90;;;;;;4986643;28;20451;-84
2021/10/22 12:38:03;;;;;;;8.88;2.70;;;11.00;99.90;;;;;;4985701;28;20451;-84
2021/10/22 12:40:31;;;;;;;9.55;3.03;;;11.10;99.90;;;;;;4987510;28;20898;-84
2021/10/22 12:43:09;;;;;;;9.40;3.03;;;11.10;99.90;;;;;;4987209;28;20471;-82
2021/10/22 12:45:57;;;;;;;8.40;2.50;;;11.10;99.90;;;;;;4987677;28;20475;-82
2021/10/22 12:48:44;;;;;;;9.13;2.80;;;11.10;99.90;;;;;;4977246;28;20436;-84
2021/10/22 12:51:15;;;;;;;6.22;2.45;;;11.10;99.90;;;;;;4978636;28;20405;-85
2021/10/22 12:53:46;;;;;;;12.45;3.60;;;11.10;99.90;;;;;;4981674;28;20377;-84
2021/10/22 12:56:16;;;;;;;9.98;3.28;;;11.10;99.90;;;;;;4986017;28;20408;-83
2021/10/22 12:58:54;;;;;;;7.55;3.28;;;10.90;99.90;;;;;;4985838;28;20396;-83
2021/10/22 13:01:20;;;;;;;9.95;3.38;;;10.80;99.90;;;;;;4984761;28;20393;-84
2021/10/22 13:03:48;;;;;;;11.27;2.90;;;10.70;99.90;;;;;;4985851;28;20447;-84
2021/10/22 13:10:07;;;;;;;8.60;2.50;;;10.50;99.90;;;;;;4989577;28;20472;-86
2021/10/22 13:23:01;;;;;;;7.35;3.13;;;10.00;99.90;;;;;;4989119;28;20384;-85
2021/10/22 13:25:27;;;;;;;8.48;2.70;;;10.00;99.90;;;;;;4987726;28;20412;-85
2021/10/22 13:27:53;;;;;;;8.00;2.78;;;10.00;99.90;;;;;;4983246;28;20403;-84
2021/10/22 13:30:29;;;;;;;9.48;3.00;;;9.90;99.90;;;;;;4986799;28;20385;-85
2021/10/22 13:33:02;;;;;;;7.60;3.05;;;9.90;99.90;;;;;;4987543;28;20393;-85
2021/10/22 13:35:28;;;;;;;8.50;3.05;;;9.80;99.90;;;;;;4984109;28;20492;-85
2021/10/22 13:37:53;;;;;;;10.60;3.20;;;9.60;99.90;;;;;;4986017;28;20823;-86
2021/10/22 13:40:19;;;;;;;6.93;2.75;;;9.60;99.90;;;;;;4988714;28;20949;-84
2021/10/22 13:42:45;;;;;;;9.17;2.90;;;9.50;99.90;;;;;;4988884;28;20381;-86
2021/10/22 13:45:10;;;;;;;12.03;3.70;;;9.60;99.90;;;;;;4989063;28;20412;-83
2021/10/22 13:47:38;;;;;;;7.53;3.13;;;9.60;99.90;;;;;;4987605;28;20499;-84
2021/10/22 13:50:04;;;;;;;9.32;3.20;;;9.60;99.90;;;;;;4985665;28;20895;-85
2021/10/22 13:52:29;;;;;;;9.15;3.30;;;9.70;99.90;;;;;;4984130;28;20376;-83
2021/10/22 13:54:55;;;;;;;9.77;3.58;;;9.60;99.90;;;;;;4985844;28;20397;-83
2021/10/22 13:57:23;;;;;;;10.35;3.40;;;9.60;99.90;;;;;;4985171;28;20961;-89
2021/10/22 13:59:49;;;;;;;8.93;3.38;;;9.60;99.90;;;;;;4986579;28;20468;-84
2021/10/22 14:02:15;;;;;;;8.40;3.10;;;9.50;99.90;;;;;;4975769;28;20489;-86
2021/10/22 14:04:40;;;;;;;6.67;3.13;;;9.40;99.90;;;;;;4970178;28;20501;-85
2021/10/22 14:07:07;;;;;;;10.53;3.50;;;9.40;99.90;;;;;;4970445;28;20382;-85
2021/10/22 14:09:32;;;;;;;9.98;3.60;;;9.30;99.90;;;;;;4973725;28;20375;-84
2021/10/22 14:12:06;;;;;;;9.27;3.87;;;9.30;99.90;;;;;;4984355;28;20439;-86
2021/10/22 14:17:57;;;;;;;9.30;3.53;;;9.40;99.90;;;;;;4959661;28;20414;-84
2021/10/22 14:28:57;;;;;;;7.35;2.65;;;9.50;99.90;;;;;;4982090;28;20394;-82
2021/10/22 14:31:00;;;;;;;7.60;2.85;;;9.50;99.90;;;;;;4978968;28;20398;-84
2021/10/22 14:33:26;;;;;;;9.13;3.10;;;9.50;99.90;;;;;;4974212;28;20386;-83
2021/10/22 14:35:51;;;;;;;7.18;2.67;;;9.40;99.90;;;;;;4969959;28;21016;-86
2021/10/22 14:38:17;;;;;;;6.63;2.35;;;9.40;99.90;;;;;;4971572;28;20389;-84
2021/10/22 14:40:43;;;;;;;7.93;2.75;;;9.40;99.90;;;;;;4979979;28;20389;-82
2021/10/22 14:43:13;;;;;;;8.20;2.60;;;9.40;99.90;;;;;;4976201;28;20499;-84
2021/10/22 14:48:20;;;;;;;7.20;2.85;;;9.40;99.90;;;;;;4980591;28;20390;-83
2021/10/22 14:50:47;;;;;;;7.50;2.72;;;9.40;99.90;;;;;;4975277;28;20486;-84
2021/10/22 14:55:47;;;;;;;8.00;3.00;;;9.40;99.90;;;;;;4983715;28;20386;-84
2021/10/22 14:58:19;;;;;;;7.57;2.50;;;9.40;99.90;;;;;;4976470;28;20381;-84
2021/10/22 15:00:47;;;;;;;7.03;2.70;;;9.40;99.90;;;;;;4985243;28;20408;-85
2021/10/22 15:03:12;;;;;;;6.93;2.35;;;9.30;99.90;;;;;;4987069;28;20404;-83
2021/10/22 15:05:38;;;;;;;5.27;2.47;;;9.30;99.90;;;;;;4986359;28;20774;-85
2021/10/22 15:08:07;;;;;;;7.28;2.75;;;9.20;99.90;;;;;;4984927;28;20396;-86
2021/10/22 15:10:33;;;;;;;5.28;2.35;;;9.20;99.90;;;;;;4985836;28;20403;-83
2021/10/22 15:13:00;;;;;;;5.45;2.55;;;9.20;99.90;;;;;;4984398;28;20432;-85
2021/10/22 15:15:25;;;;;;;6.65;2.50;;;9.20;99.90;;;;;;4987865;28;20373;-87
2021/10/22 15:17:51;;;;;;;6.20;2.40;;;9.20;99.90;;;;;;4986090;28;20385;-84
2021/10/22 15:20:17;;;;;;;6.82;2.40;;;9.30;99.90;;;;;;4986387;28;20438;-84
2021/10/22 15:22:43;;;;;;;5.93;2.22;;;9.10;99.90;;;;;;4987355;28;20435;-83
2021/10/22 15:25:09;;;;;;;4.75;1.92;;;9.10;99.90;;;;;;4986802;28;20417;-83
2021/10/22 15:27:35;;;;;;;5.30;2.27;;;9.10;99.90;;;;;;4987153;28;21122;-83
2021/10/22 15:30:05;;;;;;;5.78;2.20;;;9.10;99.90;;;;;;4987564;28;20395;-83
2021/10/22 15:32:31;;;;;;;5.68;2.70;;;9.10;99.90;;;;;;4986841;28;20822;-84
2021/10/22 15:34:56;;;;;;;7.53;3.20;;;9.10;99.90;;;;;;4986387;28;20381;-82
2021/10/22 15:37:22;;;;;;;9.20;4.20;;;9.10;99.90;;;;;;4984694;28;20385;-83
2021/10/22 15:39:48;;;;;;;12.63;5.90;;;9.10;99.90;;;;;;4986522;28;20527;-83
2021/10/22 15:42:15;;;;;;;3.92;2.40;;;8.80;99.90;;;;;;4986643;28;20397;-83
2021/10/22 15:44:41;;;;;;;7.97;2.70;;;8.60;99.90;;;;;;4985609;28;20416;-83
2021/10/22 15:47:06;;;;;;;5.85;3.15;;;8.50;99.90;;;;;;4987418;28;20457;-83
2021/10/22 15:49:35;;;;;;;5.03;2.47;;;8.50;99.90;;;;;;4987525;28;20393;-85
2021/10/22 15:52:08;;;;;;;5.65;2.72;;;8.40;99.90;;;;;;4985148;28;20393;-84
2021/10/22 15:54:36;;;;;;;4.65;3.28;;;8.30;99.90;;;;;;4986116;28;21378;-85
2021/10/22 15:57:04;;;;;;;4.37;2.93;;;8.30;99.90;;;;;;4985683;28;20910;-84
2021/10/22 15:59:30;;;;;;;4.60;1.98;;;8.30;99.90;;;;;;4986332;28;21053;-85
2021/10/22 16:01:56;;;;;;;6.80;3.38;;;8.30;99.90;;;;;;4986385;28;20393;-83
2021/10/22 16:04:23;;;;;;;4.10;1.88;;;8.20;99.90;;;;;;4986203;28;20420;-83